Hauptseite
METAR-TAF:

METAR-TAF

Flughäfen :

Flughafen Dundee

Dundee, Schottland

Breite: 56-27N, Länge: 003-01W, Höhe: 4 m

Beobachtung

Neuester Wetterbericht von vor 6 Stunden und 43 Minuten, um 20:20 UTC
Wind 7 kt aus West
Temperatur 3°C
Luftfeuchtigkeit 87%
Luftdruck 1016 hPa
Sichtweite 10 km oder mehr
Leicht bewölkt in der Höhe von 3500 ft

METAR: EGPN 232020Z 28007KT 9999 FEW035 03/01 Q1016

Zeit: 03:03 (03:03 UTC)

Prognose

Neuester Wetterbericht von vor 10 Stunden und 3 Minuten, um 17:00 UTC
Gültige Prognose vom 23 um 18 UTC bis 23 um 21 UTC
Wind 12 kt aus West
Sichtweite 10 km oder mehr
Leicht bewölkt in der Höhe von 3000 ft
Wahrscheinlichkeit 30% :
Zeitweise
vom 23 um 18 UTC bis 23 um 19 UTC
Wind 18 kt aus West, Böen bis zu 28 kt

TAF: EGPN 231700Z 2318/2321 26012KT 9999 FEW030 PROB30 TEMPO 2318/2319 28018G28KT

Wetterbeobachtungen und Prognosen von mehr als 4000 Flughäfen (METAR und TAF Bericht).

Die verfügbaren Stationen werden durch gelbe und rote Markierungen auf der Karte dargestellt.

Führen Sie die Maus auf sie, um den Namen der Station zu sehen.

Darauf klicken, um die Beobachtung von Wetterbeobachtungen und Prognosen zu sehen.

Um die Karte zu ändern : klicken Sie auf den grünen Tasten mit einem schwarzen Kreuz Zum Vergrößern, auf den grünen Button mit einem Gedankenstrich zu verkleinern, oder auf die grünen Pfeile für benachbarte Karten.


METAR-TAF: